sensor_id;sensor_type;location;lat;lon;timestamp;P1;durP1;ratioP1;P2;durP2;ratioP2
16965;SDS011;8599;47.852;12.070;2022-10-22T00:01:36;4.60;;;3.00;;
16965;SDS011;8599;47.852;12.070;2022-10-22T00:04:04;3.27;;;2.60;;
16965;SDS011;8599;47.852;12.070;2022-10-22T00:06:31;2.57;;;2.37;;
16965;SDS011;8599;47.852;12.070;2022-10-22T00:08:59;2.70;;;2.27;;
16965;SDS011;8599;47.852;12.070;2022-10-22T00:11:26;2.77;;;2.23;;
16965;SDS011;8599;47.852;12.070;2022-10-22T00:13:53;4.13;;;2.47;;
16965;SDS011;8599;47.852;12.070;2022-10-22T00:16:20;4.27;;;2.73;;
16965;SDS011;8599;47.852;12.070;2022-10-22T00:18:47;6.07;;;2.87;;
16965;SDS011;8599;47.852;12.070;2022-10-22T00:21:14;3.50;;;2.70;;
16965;SDS011;8599;47.852;12.070;2022-10-22T00:23:41;2.43;;;2.23;;
16965;SDS011;8599;47.852;12.070;2022-10-22T00:26:10;4.30;;;2.80;;
16965;SDS011;8599;47.852;12.070;2022-10-22T00:28:37;3.17;;;2.57;;
16965;SDS011;8599;47.852;12.070;2022-10-22T00:31:04;2.70;;;2.50;;
16965;SDS011;8599;47.852;12.070;2022-10-22T00:33:31;3.07;;;2.50;;
16965;SDS011;8599;47.852;12.070;2022-10-22T00:35:58;5.03;;;2.87;;
16965;SDS011;8599;47.852;12.070;2022-10-22T00:38:25;3.13;;;2.83;;
16965;SDS011;8599;47.852;12.070;2022-10-22T00:40:52;4.03;;;2.73;;
16965;SDS011;8599;47.852;12.070;2022-10-22T00:43:20;3.37;;;2.50;;
16965;SDS011;8599;47.852;12.070;2022-10-22T00:45:47;3.87;;;2.90;;
16965;SDS011;8599;47.852;12.070;2022-10-22T00:48:15;4.30;;;3.10;;
16965;SDS011;8599;47.852;12.070;2022-10-22T00:50:45;3.90;;;2.90;;
16965;SDS011;8599;47.852;12.070;2022-10-22T00:53:16;3.70;;;2.67;;
16965;SDS011;8599;47.852;12.070;2022-10-22T00:55:45;4.20;;;3.10;;
16965;SDS011;8599;47.852;12.070;2022-10-22T00:58:16;3.70;;;2.87;;
16965;SDS011;8599;47.852;12.070;2022-10-22T01:00:46;3.37;;;2.70;;
16965;SDS011;8599;47.852;12.070;2022-10-22T01:03:13;10.67;;;3.40;;
16965;SDS011;8599;47.852;12.070;2022-10-22T01:05:42;3.87;;;2.87;;
16965;SDS011;8599;47.852;12.070;2022-10-22T01:08:24;10.03;;;3.03;;
16965;SDS011;8599;47.852;12.070;2022-10-22T01:11:05;5.17;;;2.43;;
16965;SDS011;8599;47.852;12.070;2022-10-22T01:13:41;6.60;;;3.10;;
16965;SDS011;8599;47.852;12.070;2022-10-22T01:16:17;6.67;;;2.87;;
16965;SDS011;8599;47.852;12.070;2022-10-22T01:18:53;2.83;;;2.63;;
16965;SDS011;8599;47.852;12.070;2022-10-22T01:21:30;4.40;;;3.00;;
16965;SDS011;8599;47.852;12.070;2022-10-22T01:24:11;3.50;;;2.60;;
16965;SDS011;8599;47.852;12.070;2022-10-22T01:26:53;2.53;;;2.33;;
16965;SDS011;8599;47.852;12.070;2022-10-22T01:29:29;3.77;;;3.10;;
16965;SDS011;8599;47.852;12.070;2022-10-22T01:32:00;4.50;;;2.97;;
16965;SDS011;8599;47.852;12.070;2022-10-22T01:34:32;6.67;;;2.87;;
16965;SDS011;8599;47.852;12.070;2022-10-22T01:37:00;3.63;;;2.80;;
16965;SDS011;8599;47.852;12.070;2022-10-22T01:39:28;8.83;;;2.90;;
16965;SDS011;8599;47.852;12.070;2022-10-22T01:41:56;4.17;;;2.70;;
16965;SDS011;8599;47.852;12.070;2022-10-22T01:44:24;3.07;;;2.53;;
16965;SDS011;8599;47.852;12.070;2022-10-22T01:46:55;4.00;;;2.77;;
16965;SDS011;8599;47.852;12.070;2022-10-22T01:49:31;7.60;;;2.57;;
16965;SDS011;8599;47.852;12.070;2022-10-22T01:52:08;4.90;;;2.63;;
16965;SDS011;8599;47.852;12.070;2022-10-22T01:54:45;2.70;;;2.50;;
16965;SDS011;8599;47.852;12.070;2022-10-22T01:57:18;5.10;;;2.57;;
16965;SDS011;8599;47.852;12.070;2022-10-22T01:59:52;5.00;;;2.83;;
16965;SDS011;8599;47.852;12.070;2022-10-22T02:02:30;7.40;;;2.67;;
16965;SDS011;8599;47.852;12.070;2022-10-22T02:05:02;2.43;;;1.80;;
16965;SDS011;8599;47.852;12.070;2022-10-22T02:07:35;3.90;;;2.30;;
16965;SDS011;8599;47.852;12.070;2022-10-22T02:10:06;2.80;;;2.10;;
16965;SDS011;8599;47.852;12.070;2022-10-22T02:12:35;2.10;;;1.90;;
16965;SDS011;8599;47.852;12.070;2022-10-22T02:15:04;3.80;;;2.17;;
16965;SDS011;8599;47.852;12.070;2022-10-22T02:17:34;2.63;;;1.73;;
16965;SDS011;8599;47.852;12.070;2022-10-22T02:20:05;2.20;;;2.00;;
16965;SDS011;8599;47.852;12.070;2022-10-22T02:22:35;6.40;;;2.03;;
16965;SDS011;8599;47.852;12.070;2022-10-22T02:25:02;2.57;;;1.80;;
16965;SDS011;8599;47.852;12.070;2022-10-22T02:27:31;2.27;;;1.50;;
16965;SDS011;8599;47.852;12.070;2022-10-22T02:30:02;2.83;;;1.47;;
16965;SDS011;8599;47.852;12.070;2022-10-22T02:32:33;4.20;;;1.40;;
16965;SDS011;8599;47.852;12.070;2022-10-22T02:35:05;3.07;;;1.70;;
16965;SDS011;8599;47.852;12.070;2022-10-22T02:37:34;1.20;;;1.10;;
16965;SDS011;8599;47.852;12.070;2022-10-22T02:40:02;1.67;;;1.43;;
16965;SDS011;8599;47.852;12.070;2022-10-22T02:42:29;3.57;;;1.40;;
16965;SDS011;8599;47.852;12.070;2022-10-22T02:44:56;1.60;;;1.13;;
16965;SDS011;8599;47.852;12.070;2022-10-22T02:47:23;1.33;;;1.23;;
16965;SDS011;8599;47.852;12.070;2022-10-22T02:49:51;2.20;;;1.30;;
16965;SDS011;8599;47.852;12.070;2022-10-22T02:52:18;6.87;;;1.27;;
16965;SDS011;8599;47.852;12.070;2022-10-22T02:54:45;3.83;;;1.20;;
16965;SDS011;8599;47.852;12.070;2022-10-22T02:57:12;2.37;;;1.30;;
16965;SDS011;8599;47.852;12.070;2022-10-22T02:59:38;1.37;;;1.10;;
16965;SDS011;8599;47.852;12.070;2022-10-22T03:02:05;2.20;;;1.20;;
16965;SDS011;8599;47.852;12.070;2022-10-22T03:04:32;0.77;;;0.77;;
16965;SDS011;8599;47.852;12.070;2022-10-22T03:07:00;4.03;;;1.43;;
16965;SDS011;8599;47.852;12.070;2022-10-22T03:09:27;1.53;;;1.17;;
16965;SDS011;8599;47.852;12.070;2022-10-22T03:11:54;1.20;;;1.10;;
16965;SDS011;8599;47.852;12.070;2022-10-22T03:14:21;2.60;;;1.20;;
16965;SDS011;8599;47.852;12.070;2022-10-22T03:16:47;2.67;;;1.03;;
16965;SDS011;8599;47.852;12.070;2022-10-22T03:19:14;1.20;;;1.10;;
16965;SDS011;8599;47.852;12.070;2022-10-22T03:21:42;3.30;;;1.10;;
16965;SDS011;8599;47.852;12.070;2022-10-22T03:24:15;2.10;;;1.30;;
16965;SDS011;8599;47.852;12.070;2022-10-22T03:26:47;8.13;;;1.03;;
16965;SDS011;8599;47.852;12.070;2022-10-22T03:29:15;4.40;;;1.23;;
16965;SDS011;8599;47.852;12.070;2022-10-22T03:31:42;3.37;;;1.50;;
16965;SDS011;8599;47.852;12.070;2022-10-22T03:34:09;1.63;;;1.10;;
16965;SDS011;8599;47.852;12.070;2022-10-22T03:36:37;1.57;;;1.07;;
16965;SDS011;8599;47.852;12.070;2022-10-22T03:39:05;3.60;;;1.40;;
16965;SDS011;8599;47.852;12.070;2022-10-22T03:41:34;7.03;;;1.40;;
16965;SDS011;8599;47.852;12.070;2022-10-22T03:44:02;1.43;;;1.23;;
16965;SDS011;8599;47.852;12.070;2022-10-22T03:46:29;4.10;;;1.70;;
16965;SDS011;8599;47.852;12.070;2022-10-22T03:48:56;1.87;;;1.07;;
16965;SDS011;8599;47.852;12.070;2022-10-22T03:51:25;9.47;;;1.57;;
16965;SDS011;8599;47.852;12.070;2022-10-22T03:53:52;5.07;;;1.40;;
16965;SDS011;8599;47.852;12.070;2022-10-22T03:56:19;1.97;;;1.40;;
16965;SDS011;8599;47.852;12.070;2022-10-22T03:58:48;2.57;;;1.07;;
16965;SDS011;8599;47.852;12.070;2022-10-22T04:01:14;5.43;;;2.30;;
16965;SDS011;8599;47.852;12.070;2022-10-22T04:03:41;1.40;;;1.30;;
16965;SDS011;8599;47.852;12.070;2022-10-22T04:06:09;1.50;;;1.40;;
16965;SDS011;8599;47.852;12.070;2022-10-22T04:08:37;2.17;;;1.30;;
16965;SDS011;8599;47.852;12.070;2022-10-22T04:11:05;1.73;;;1.63;;
16965;SDS011;8599;47.852;12.070;2022-10-22T04:13:32;5.83;;;1.67;;
16965;SDS011;8599;47.852;12.070;2022-10-22T04:16:06;1.77;;;1.60;;
16965;SDS011;8599;47.852;12.070;2022-10-22T04:18:34;1.30;;;1.20;;
16965;SDS011;8599;47.852;12.070;2022-10-22T04:21:01;2.30;;;1.10;;
16965;SDS011;8599;47.852;12.070;2022-10-22T04:23:27;0.70;;;0.70;;
16965;SDS011;8599;47.852;12.070;2022-10-22T04:25:56;1.00;;;0.73;;
16965;SDS011;8599;47.852;12.070;2022-10-22T04:28:24;4.03;;;0.90;;
16965;SDS011;8599;47.852;12.070;2022-10-22T04:30:51;0.80;;;0.70;;
16965;SDS011;8599;47.852;12.070;2022-10-22T04:33:19;0.63;;;0.50;;
16965;SDS011;8599;47.852;12.070;2022-10-22T04:35:46;0.80;;;0.70;;
16965;SDS011;8599;47.852;12.070;2022-10-22T04:38:13;0.60;;;0.50;;
16965;SDS011;8599;47.852;12.070;2022-10-22T04:40:40;0.77;;;0.60;;
16965;SDS011;8599;47.852;12.070;2022-10-22T04:43:07;0.60;;;0.60;;
16965;SDS011;8599;47.852;12.070;2022-10-22T04:45:34;0.88;;;0.65;;
16965;SDS011;8599;47.852;12.070;2022-10-22T04:48:01;1.13;;;0.60;;
16965;SDS011;8599;47.852;12.070;2022-10-22T04:50:30;0.70;;;0.57;;
16965;SDS011;8599;47.852;12.070;2022-10-22T04:52:56;0.67;;;0.60;;
16965;SDS011;8599;47.852;12.070;2022-10-22T04:55:23;0.70;;;0.70;;
16965;SDS011;8599;47.852;12.070;2022-10-22T04:57:50;2.20;;;0.83;;
16965;SDS011;8599;47.852;12.070;2022-10-22T05:00:17;0.50;;;0.50;;
16965;SDS011;8599;47.852;12.070;2022-10-22T05:02:47;0.60;;;0.60;;
16965;SDS011;8599;47.852;12.070;2022-10-22T05:05:14;6.03;;;4.03;;
16965;SDS011;8599;47.852;12.070;2022-10-22T05:07:43;3.53;;;2.53;;
16965;SDS011;8599;47.852;12.070;2022-10-22T05:10:10;4.10;;;2.63;;
16965;SDS011;8599;47.852;12.070;2022-10-22T05:12:37;2.87;;;2.20;;
16965;SDS011;8599;47.852;12.070;2022-10-22T05:15:04;1.33;;;1.17;;
16965;SDS011;8599;47.852;12.070;2022-10-22T05:17:34;1.00;;;1.00;;
16965;SDS011;8599;47.852;12.070;2022-10-22T05:20:01;3.20;;;1.60;;
16965;SDS011;8599;47.852;12.070;2022-10-22T05:22:28;7.50;;;3.87;;
16965;SDS011;8599;47.852;12.070;2022-10-22T05:24:56;6.03;;;4.00;;
16965;SDS011;8599;47.852;12.070;2022-10-22T05:27:23;3.63;;;2.37;;
16965;SDS011;8599;47.852;12.070;2022-10-22T05:29:50;4.37;;;1.90;;
16965;SDS011;8599;47.852;12.070;2022-10-22T05:32:17;3.53;;;1.53;;
16965;SDS011;8599;47.852;12.070;2022-10-22T05:34:44;1.90;;;1.80;;
16965;SDS011;8599;47.852;12.070;2022-10-22T05:37:11;2.73;;;1.97;;
16965;SDS011;8599;47.852;12.070;2022-10-22T05:39:37;2.47;;;1.60;;
16965;SDS011;8599;47.852;12.070;2022-10-22T05:42:07;4.23;;;1.87;;
16965;SDS011;8599;47.852;12.070;2022-10-22T05:44:33;1.37;;;1.10;;
16965;SDS011;8599;47.852;12.070;2022-10-22T05:47:00;0.70;;;0.70;;
16965;SDS011;8599;47.852;12.070;2022-10-22T05:49:27;1.10;;;1.00;;
16965;SDS011;8599;47.852;12.070;2022-10-22T05:51:54;2.47;;;1.40;;
16965;SDS011;8599;47.852;12.070;2022-10-22T05:54:21;1.97;;;1.57;;
16965;SDS011;8599;47.852;12.070;2022-10-22T05:56:48;3.20;;;2.17;;
16965;SDS011;8599;47.852;12.070;2022-10-22T05:59:16;2.93;;;1.60;;
16965;SDS011;8599;47.852;12.070;2022-10-22T06:01:43;2.17;;;1.40;;
16965;SDS011;8599;47.852;12.070;2022-10-22T06:04:10;2.50;;;1.47;;
16965;SDS011;8599;47.852;12.070;2022-10-22T06:06:38;2.20;;;1.60;;
16965;SDS011;8599;47.852;12.070;2022-10-22T06:09:10;1.30;;;1.20;;
16965;SDS011;8599;47.852;12.070;2022-10-22T06:11:40;2.30;;;1.17;;
16965;SDS011;8599;47.852;12.070;2022-10-22T06:14:08;1.30;;;0.93;;
16965;SDS011;8599;47.852;12.070;2022-10-22T06:16:36;1.63;;;1.53;;
16965;SDS011;8599;47.852;12.070;2022-10-22T06:19:18;5.13;;;2.37;;
16965;SDS011;8599;47.852;12.070;2022-10-22T06:21:46;5.90;;;2.50;;
16965;SDS011;8599;47.852;12.070;2022-10-22T06:24:14;4.17;;;2.30;;
16965;SDS011;8599;47.852;12.070;2022-10-22T06:26:41;2.83;;;2.27;;
16965;SDS011;8599;47.852;12.070;2022-10-22T06:29:08;3.30;;;1.83;;
16965;SDS011;8599;47.852;12.070;2022-10-22T06:31:36;4.40;;;2.33;;
16965;SDS011;8599;47.852;12.070;2022-10-22T06:34:03;3.87;;;1.33;;
16965;SDS011;8599;47.852;12.070;2022-10-22T06:36:31;1.57;;;1.30;;
16965;SDS011;8599;47.852;12.070;2022-10-22T06:38:58;1.30;;;1.20;;
16965;SDS011;8599;47.852;12.070;2022-10-22T06:41:25;1.70;;;1.60;;
16965;SDS011;8599;47.852;12.070;2022-10-22T06:43:52;2.77;;;1.40;;
16965;SDS011;8599;47.852;12.070;2022-10-22T06:46:20;4.10;;;1.40;;
16965;SDS011;8599;47.852;12.070;2022-10-22T06:48:49;3.27;;;1.83;;
16965;SDS011;8599;47.852;12.070;2022-10-22T06:51:17;3.73;;;1.77;;
16965;SDS011;8599;47.852;12.070;2022-10-22T06:53:46;2.10;;;1.80;;
16965;SDS011;8599;47.852;12.070;2022-10-22T06:56:14;1.47;;;1.37;;
16965;SDS011;8599;47.852;12.070;2022-10-22T06:58:42;1.73;;;1.60;;
16965;SDS011;8599;47.852;12.070;2022-10-22T07:01:13;3.40;;;2.13;;
16965;SDS011;8599;47.852;12.070;2022-10-22T07:03:41;4.80;;;3.27;;
16965;SDS011;8599;47.852;12.070;2022-10-22T07:06:09;4.03;;;3.13;;
16965;SDS011;8599;47.852;12.070;2022-10-22T07:08:38;3.13;;;2.60;;
16965;SDS011;8599;47.852;12.070;2022-10-22T07:11:06;2.40;;;2.20;;
16965;SDS011;8599;47.852;12.070;2022-10-22T07:13:34;5.37;;;2.83;;
16965;SDS011;8599;47.852;12.070;2022-10-22T07:16:01;3.23;;;2.53;;
16965;SDS011;8599;47.852;12.070;2022-10-22T07:18:29;4.63;;;2.73;;
16965;SDS011;8599;47.852;12.070;2022-10-22T07:20:57;4.40;;;2.63;;
16965;SDS011;8599;47.852;12.070;2022-10-22T07:23:25;3.20;;;2.13;;
16965;SDS011;8599;47.852;12.070;2022-10-22T07:25:52;2.30;;;1.97;;
16965;SDS011;8599;47.852;12.070;2022-10-22T07:28:19;2.77;;;1.90;;
16965;SDS011;8599;47.852;12.070;2022-10-22T07:30:46;1.90;;;1.70;;
16965;SDS011;8599;47.852;12.070;2022-10-22T07:33:13;1.53;;;1.40;;
16965;SDS011;8599;47.852;12.070;2022-10-22T07:35:40;1.93;;;1.70;;
16965;SDS011;8599;47.852;12.070;2022-10-22T07:38:07;3.23;;;1.83;;
16965;SDS011;8599;47.852;12.070;2022-10-22T07:40:35;2.40;;;1.60;;
16965;SDS011;8599;47.852;12.070;2022-10-22T07:43:02;2.83;;;1.47;;
16965;SDS011;8599;47.852;12.070;2022-10-22T07:45:29;3.27;;;2.17;;
16965;SDS011;8599;47.852;12.070;2022-10-22T07:47:57;2.67;;;1.80;;
16965;SDS011;8599;47.852;12.070;2022-10-22T07:50:24;4.00;;;1.43;;
16965;SDS011;8599;47.852;12.070;2022-10-22T07:52:51;2.30;;;1.40;;
16965;SDS011;8599;47.852;12.070;2022-10-22T07:55:18;2.37;;;1.50;;
16965;SDS011;8599;47.852;12.070;2022-10-22T07:57:46;1.97;;;1.40;;
16965;SDS011;8599;47.852;12.070;2022-10-22T08:00:13;1.27;;;1.10;;
16965;SDS011;8599;47.852;12.070;2022-10-22T08:02:40;1.80;;;1.70;;
16965;SDS011;8599;47.852;12.070;2022-10-22T08:05:07;2.27;;;1.73;;
16965;SDS011;8599;47.852;12.070;2022-10-22T08:07:34;2.20;;;2.00;;
16965;SDS011;8599;47.852;12.070;2022-10-22T08:10:01;2.83;;;2.00;;
16965;SDS011;8599;47.852;12.070;2022-10-22T08:12:28;3.50;;;2.43;;
16965;SDS011;8599;47.852;12.070;2022-10-22T08:14:56;5.20;;;2.63;;
16965;SDS011;8599;47.852;12.070;2022-10-22T08:17:24;3.70;;;2.50;;
16965;SDS011;8599;47.852;12.070;2022-10-22T08:19:51;9.07;;;3.40;;
16965;SDS011;8599;47.852;12.070;2022-10-22T08:22:18;5.90;;;3.30;;
16965;SDS011;8599;47.852;12.070;2022-10-22T08:24:45;5.40;;;2.60;;
16965;SDS011;8599;47.852;12.070;2022-10-22T08:27:13;5.40;;;2.77;;
16965;SDS011;8599;47.852;12.070;2022-10-22T08:29:39;6.00;;;3.10;;
16965;SDS011;8599;47.852;12.070;2022-10-22T08:32:08;3.50;;;2.43;;
16965;SDS011;8599;47.852;12.070;2022-10-22T08:34:34;11.90;;;3.10;;
16965;SDS011;8599;47.852;12.070;2022-10-22T08:37:01;13.53;;;3.57;;
16965;SDS011;8599;47.852;12.070;2022-10-22T08:39:28;8.00;;;1.80;;
16965;SDS011;8599;47.852;12.070;2022-10-22T08:41:58;4.43;;;2.20;;
16965;SDS011;8599;47.852;12.070;2022-10-22T08:44:47;3.33;;;1.87;;
16965;SDS011;8599;47.852;12.070;2022-10-22T08:47:40;3.13;;;2.00;;
16965;SDS011;8599;47.852;12.070;2022-10-22T08:50:18;1.83;;;1.53;;
16965;SDS011;8599;47.852;12.070;2022-10-22T08:52:54;2.60;;;1.83;;
16965;SDS011;8599;47.852;12.070;2022-10-22T08:55:24;2.27;;;1.90;;
16965;SDS011;8599;47.852;12.070;2022-10-22T08:57:53;3.27;;;1.70;;
16965;SDS011;8599;47.852;12.070;2022-10-22T09:00:28;1.93;;;1.73;;
16965;SDS011;8599;47.852;12.070;2022-10-22T09:03:04;1.60;;;1.50;;
16965;SDS011;8599;47.852;12.070;2022-10-22T09:05:46;2.57;;;1.93;;
16965;SDS011;8599;47.852;12.070;2022-10-22T09:08:20;4.07;;;2.17;;
16965;SDS011;8599;47.852;12.070;2022-10-22T09:10:48;2.57;;;1.70;;
16965;SDS011;8599;47.852;12.070;2022-10-22T09:13:19;1.13;;;1.00;;
16965;SDS011;8599;47.852;12.070;2022-10-22T09:15:47;1.53;;;1.43;;
16965;SDS011;8599;47.852;12.070;2022-10-22T09:18:22;3.87;;;2.57;;
16965;SDS011;8599;47.852;12.070;2022-10-22T09:21:01;3.17;;;1.50;;
16965;SDS011;8599;47.852;12.070;2022-10-22T09:23:43;2.03;;;1.60;;
16965;SDS011;8599;47.852;12.070;2022-10-22T09:26:18;4.23;;;1.60;;
16965;SDS011;8599;47.852;12.070;2022-10-22T09:28:48;3.47;;;1.63;;
16965;SDS011;8599;47.852;12.070;2022-10-22T09:31:16;3.90;;;2.10;;
16965;SDS011;8599;47.852;12.070;2022-10-22T09:33:45;6.30;;;1.77;;
16965;SDS011;8599;47.852;12.070;2022-10-22T09:36:14;1.80;;;1.60;;
16965;SDS011;8599;47.852;12.070;2022-10-22T09:38:44;1.73;;;1.27;;
16965;SDS011;8599;47.852;12.070;2022-10-22T09:41:11;2.03;;;1.07;;
16965;SDS011;8599;47.852;12.070;2022-10-22T09:43:39;2.20;;;1.47;;
16965;SDS011;8599;47.852;12.070;2022-10-22T09:46:06;1.70;;;1.27;;
16965;SDS011;8599;47.852;12.070;2022-10-22T09:48:40;1.50;;;1.33;;
16965;SDS011;8599;47.852;12.070;2022-10-22T09:51:12;1.47;;;1.33;;
16965;SDS011;8599;47.852;12.070;2022-10-22T09:53:44;4.30;;;2.87;;
16965;SDS011;8599;47.852;12.070;2022-10-22T09:56:17;2.00;;;1.80;;
16965;SDS011;8599;47.852;12.070;2022-10-22T09:58:50;2.07;;;1.80;;
16965;SDS011;8599;47.852;12.070;2022-10-22T10:01:18;1.50;;;1.20;;
16965;SDS011;8599;47.852;12.070;2022-10-22T10:03:47;1.50;;;1.10;;
16965;SDS011;8599;47.852;12.070;2022-10-22T10:06:18;3.87;;;2.63;;
16965;SDS011;8599;47.852;12.070;2022-10-22T10:08:46;4.20;;;2.07;;
16965;SDS011;8599;47.852;12.070;2022-10-22T10:11:15;6.00;;;2.80;;
16965;SDS011;8599;47.852;12.070;2022-10-22T10:13:49;6.20;;;3.20;;
16965;SDS011;8599;47.852;12.070;2022-10-22T10:16:25;6.30;;;4.27;;
16965;SDS011;8599;47.852;12.070;2022-10-22T10:19:08;3.60;;;2.60;;
16965;SDS011;8599;47.852;12.070;2022-10-22T10:21:59;28.57;;;11.27;;
16965;SDS011;8599;47.852;12.070;2022-10-22T10:24:35;25.13;;;10.40;;
16965;SDS011;8599;47.852;12.070;2022-10-22T10:27:18;4.67;;;3.63;;
16965;SDS011;8599;47.852;12.070;2022-10-22T10:29:49;2.30;;;2.10;;
16965;SDS011;8599;47.852;12.070;2022-10-22T10:35:19;1.77;;;1.63;;
16965;SDS011;8599;47.852;12.070;2022-10-22T10:37:53;2.63;;;1.80;;
16965;SDS011;8599;47.852;12.070;2022-10-22T10:40:36;1.60;;;1.40;;
16965;SDS011;8599;47.852;12.070;2022-10-22T10:43:08;1.80;;;1.70;;
16965;SDS011;8599;47.852;12.070;2022-10-22T10:45:41;3.07;;;1.83;;
16965;SDS011;8599;47.852;12.070;2022-10-22T10:48:22;2.07;;;1.87;;
16965;SDS011;8599;47.852;12.070;2022-10-22T10:51:11;8.67;;;1.93;;
16965;SDS011;8599;47.852;12.070;2022-10-22T10:53:54;2.00;;;1.80;;
16965;SDS011;8599;47.852;12.070;2022-10-22T10:56:32;2.17;;;1.70;;
16965;SDS011;8599;47.852;12.070;2022-10-22T10:59:08;2.67;;;1.70;;
16965;SDS011;8599;47.852;12.070;2022-10-22T11:01:46;2.90;;;2.00;;
16965;SDS011;8599;47.852;12.070;2022-10-22T11:04:39;4.23;;;1.83;;
16965;SDS011;8599;47.852;12.070;2022-10-22T11:07:15;5.83;;;3.60;;
16965;SDS011;8599;47.852;12.070;2022-10-22T11:09:52;5.03;;;3.50;;
16965;SDS011;8599;47.852;12.070;2022-10-22T11:12:23;6.53;;;3.90;;
16965;SDS011;8599;47.852;12.070;2022-10-22T11:14:55;9.57;;;3.93;;
16965;SDS011;8599;47.852;12.070;2022-10-22T11:17:28;5.03;;;3.83;;
16965;SDS011;8599;47.852;12.070;2022-10-22T11:20:01;5.63;;;3.53;;
16965;SDS011;8599;47.852;12.070;2022-10-22T11:22:37;6.53;;;2.93;;
16965;SDS011;8599;47.852;12.070;2022-10-22T11:25:14;4.50;;;2.60;;
16965;SDS011;8599;47.852;12.070;2022-10-22T11:27:46;4.63;;;3.37;;
16965;SDS011;8599;47.852;12.070;2022-10-22T11:30:17;4.30;;;2.70;;
16965;SDS011;8599;47.852;12.070;2022-10-22T11:32:46;5.60;;;2.93;;
16965;SDS011;8599;47.852;12.070;2022-10-22T11:35:15;3.40;;;2.37;;
16965;SDS011;8599;47.852;12.070;2022-10-22T11:37:45;4.83;;;2.47;;
16965;SDS011;8599;47.852;12.070;2022-10-22T11:40:15;2.23;;;2.10;;
16965;SDS011;8599;47.852;12.070;2022-10-22T11:42:45;3.33;;;2.13;;
16965;SDS011;8599;47.852;12.070;2022-10-22T11:45:28;2.60;;;2.23;;
16965;SDS011;8599;47.852;12.070;2022-10-22T11:47:57;3.60;;;2.40;;
16965;SDS011;8599;47.852;12.070;2022-10-22T11:50:43;2.90;;;2.60;;
16965;SDS011;8599;47.852;12.070;2022-10-22T11:53:25;2.77;;;2.30;;
16965;SDS011;8599;47.852;12.070;2022-10-22T11:55:57;5.20;;;2.77;;
16965;SDS011;8599;47.852;12.070;2022-10-22T11:58:34;2.20;;;2.00;;
16965;SDS011;8599;47.852;12.070;2022-10-22T12:01:27;2.43;;;1.70;;
16965;SDS011;8599;47.852;12.070;2022-10-22T12:08:03;2.47;;;1.40;;
16965;SDS011;8599;47.852;12.070;2022-10-22T12:10:11;4.40;;;1.70;;
16965;SDS011;8599;47.852;12.070;2022-10-22T12:12:45;2.20;;;2.00;;
16965;SDS011;8599;47.852;12.070;2022-10-22T12:15:22;2.87;;;1.97;;
16965;SDS011;8599;47.852;12.070;2022-10-22T12:17:55;3.23;;;2.03;;
16965;SDS011;8599;47.852;12.070;2022-10-22T12:20:24;2.30;;;1.93;;
16965;SDS011;8599;47.852;12.070;2022-10-22T12:22:52;1.50;;;1.30;;
16965;SDS011;8599;47.852;12.070;2022-10-22T12:25:21;3.93;;;1.60;;
16965;SDS011;8599;47.852;12.070;2022-10-22T12:27:51;1.47;;;1.37;;
16965;SDS011;8599;47.852;12.070;2022-10-22T12:30:20;2.40;;;1.70;;
16965;SDS011;8599;47.852;12.070;2022-10-22T12:32:50;3.23;;;1.27;;
16965;SDS011;8599;47.852;12.070;2022-10-22T12:35:19;1.80;;;1.70;;
16965;SDS011;8599;47.852;12.070;2022-10-22T12:37:48;2.13;;;1.63;;
16965;SDS011;8599;47.852;12.070;2022-10-22T12:40:16;5.33;;;2.90;;
16965;SDS011;8599;47.852;12.070;2022-10-22T12:42:49;2.33;;;1.43;;
16965;SDS011;8599;47.852;12.070;2022-10-22T12:45:18;2.10;;;1.33;;
16965;SDS011;8599;47.852;12.070;2022-10-22T12:47:46;2.27;;;1.73;;
16965;SDS011;8599;47.852;12.070;2022-10-22T12:50:17;2.63;;;1.73;;
16965;SDS011;8599;47.852;12.070;2022-10-22T12:52:46;1.83;;;1.73;;
16965;SDS011;8599;47.852;12.070;2022-10-22T12:55:14;1.80;;;1.70;;
16965;SDS011;8599;47.852;12.070;2022-10-22T12:57:42;1.60;;;1.50;;
16965;SDS011;8599;47.852;12.070;2022-10-22T13:00:20;1.60;;;1.50;;
16965;SDS011;8599;47.852;12.070;2022-10-22T13:02:49;3.60;;;2.00;;
16965;SDS011;8599;47.852;12.070;2022-10-22T13:05:21;1.53;;;1.43;;
16965;SDS011;8599;47.852;12.070;2022-10-22T13:07:51;2.97;;;2.03;;
16965;SDS011;8599;47.852;12.070;2022-10-22T13:10:22;3.07;;;1.63;;
16965;SDS011;8599;47.852;12.070;2022-10-22T13:12:53;2.37;;;1.53;;
16965;SDS011;8599;47.852;12.070;2022-10-22T13:15:31;1.30;;;1.20;;
16965;SDS011;8599;47.852;12.070;2022-10-22T13:18:01;1.80;;;1.60;;
16965;SDS011;8599;47.852;12.070;2022-10-22T13:20:29;2.30;;;1.43;;
16965;SDS011;8599;47.852;12.070;2022-10-22T13:22:56;2.00;;;1.20;;
16965;SDS011;8599;47.852;12.070;2022-10-22T13:25:26;1.52;;;1.42;;
16965;SDS011;8599;47.852;12.070;2022-10-22T13:27:55;2.17;;;1.60;;
16965;SDS011;8599;47.852;12.070;2022-10-22T13:30:26;1.55;;;1.13;;
16965;SDS011;8599;47.852;12.070;2022-10-22T13:32:57;1.17;;;0.88;;
16965;SDS011;8599;47.852;12.070;2022-10-22T13:35:26;1.20;;;1.10;;
16965;SDS011;8599;47.852;12.070;2022-10-22T13:37:56;1.27;;;1.17;;
16965;SDS011;8599;47.852;12.070;2022-10-22T13:40:23;3.05;;;1.02;;
16965;SDS011;8599;47.852;12.070;2022-10-22T13:42:50;2.10;;;1.38;;
16965;SDS011;8599;47.852;12.070;2022-10-22T13:45:17;0.85;;;0.85;;
16965;SDS011;8599;47.852;12.070;2022-10-22T13:47:47;1.65;;;1.20;;
16965;SDS011;8599;47.852;12.070;2022-10-22T13:50:17;0.98;;;0.95;;
16965;SDS011;8599;47.852;12.070;2022-10-22T13:52:46;2.67;;;1.30;;
16965;SDS011;8599;47.852;12.070;2022-10-22T13:55:17;1.08;;;0.90;;
16965;SDS011;8599;47.852;12.070;2022-10-22T13:57:46;1.58;;;1.10;;
16965;SDS011;8599;47.852;12.070;2022-10-22T14:00:14;1.00;;;1.00;;
16965;SDS011;8599;47.852;12.070;2022-10-22T14:02:43;1.60;;;1.10;;
16965;SDS011;8599;47.852;12.070;2022-10-22T14:05:14;1.42;;;0.93;;
16965;SDS011;8599;47.852;12.070;2022-10-22T14:07:43;1.38;;;0.90;;
16965;SDS011;8599;47.852;12.070;2022-10-22T14:10:14;0.98;;;0.90;;
16965;SDS011;8599;47.852;12.070;2022-10-22T14:12:43;3.20;;;1.30;;
16965;SDS011;8599;47.852;12.070;2022-10-22T14:15:11;1.33;;;0.93;;
16965;SDS011;8599;47.852;12.070;2022-10-22T14:17:40;2.35;;;1.20;;
16965;SDS011;8599;47.852;12.070;2022-10-22T14:20:13;0.60;;;0.60;;
16965;SDS011;8599;47.852;12.070;2022-10-22T14:22:43;1.75;;;0.90;;
16965;SDS011;8599;47.852;12.070;2022-10-22T14:25:12;0.70;;;0.70;;
16965;SDS011;8599;47.852;12.070;2022-10-22T14:27:40;1.02;;;0.77;;
16965;SDS011;8599;47.852;12.070;2022-10-22T14:30:07;1.00;;;0.98;;
16965;SDS011;8599;47.852;12.070;2022-10-22T14:32:38;1.92;;;1.75;;
16965;SDS011;8599;47.852;12.070;2022-10-22T14:35:05;0.95;;;0.60;;
16965;SDS011;8599;47.852;12.070;2022-10-22T14:37:33;1.65;;;0.82;;
16965;SDS011;8599;47.852;12.070;2022-10-22T14:40:00;1.50;;;1.40;;
16965;SDS011;8599;47.852;12.070;2022-10-22T14:42:27;0.80;;;0.80;;
16965;SDS011;8599;47.852;12.070;2022-10-22T14:44:55;0.65;;;0.65;;
16965;SDS011;8599;47.852;12.070;2022-10-22T14:47:21;0.90;;;0.65;;
16965;SDS011;8599;47.852;12.070;2022-10-22T14:49:48;0.50;;;0.50;;
16965;SDS011;8599;47.852;12.070;2022-10-22T14:52:15;0.95;;;0.75;;
16965;SDS011;8599;47.852;12.070;2022-10-22T14:54:43;2.10;;;0.90;;
16965;SDS011;8599;47.852;12.070;2022-10-22T14:57:12;0.57;;;0.55;;
16965;SDS011;8599;47.852;12.070;2022-10-22T14:59:40;0.80;;;0.80;;
16965;SDS011;8599;47.852;12.070;2022-10-22T15:02:08;0.60;;;0.60;;
16965;SDS011;8599;47.852;12.070;2022-10-22T15:04:37;0.90;;;0.90;;
16965;SDS011;8599;47.852;12.070;2022-10-22T15:07:03;11.18;;;5.20;;
16965;SDS011;8599;47.852;12.070;2022-10-22T15:09:31;1.75;;;1.30;;
16965;SDS011;8599;47.852;12.070;2022-10-22T15:11:59;1.05;;;1.00;;